.
Local / Fort Wayne - NE Ind.

U N D E R   C O N S T R U C T I O N

Local Weather
Fort Wayne – NE Indiana

Northern Indiana (IWX) Radar

Latest IWX NEXRAD
Base Reflectivity



Latest IWX NEXRAD
Base Velocity

Indiana-Ohio Visible Satellite

For infrared and water vapor imagery, see Great Lakes - Midwest.

Current Conditions

Recent report from the Fort Wayne International Airport

Dec 01, 2018 - 06:54 PM EST / 2018.12.01 2354 UTC


The skies are overcast and there is mist. The temperature is 43.0 F (6.1 C) and the dew point is 42.1 F (5.6 C), giving a relative humidity of 96%. The barometric pressure is 29.52 in. Hg (999 hPa) and falling. The wind is from the ENE (070 degrees) at 12 MPH (10 KT), and the visibility is 2 1/2 mile(s).

KFWA 012354Z 07010KT 2 1/2SM BR OVC003 06/06 A2952 RMK AO2 SLP001 60003 T00610056 10061 20039 56032

Local Weather — Contents

Local Weather — Links

CoCoRaHS
IN-AL-39
A2 Web Hosting
Creative Commons License
GoDaddy
search engine by freefind advanced

loaded 2018-12-19 11:13:44 • last modified 2017-02-11 13:27:36
Privacy PolicyDisclaimer
• wx.awcolley.com is powered by PmWiki v.2002016 •
• all content (unless otherwise noted) © 2018 A W Colley